Portada
METAR-TAF:

METAR-TAF

Aeroports :

Minatitlán, Mèxic

latitud: 18-06N, longitud: 094-35W, altitud: 40 m

Observació

L'informe es va fer fa 9 hores i 43 minuts, a les 01:41 UTC
Vent 10 kt del Nord
Temperatura 28°C
Humitat 100%
Pressió 1011 hPa
Visibilitat: 8.0 km
Cel clar

METAR: MMMT 290141Z 36010KT 5SM SKC 28/28 A2985 RMK HZY

Hora: 06:24 (11:24 UTC)

Pronòstic

L'informe es va fer fa 6 hores i 35 minuts, a les 04:49 UTC
Pronòstic vàlid del 29 a les 06 UTC al 30 a les 06 UTC
Vent kt del Nord
Visibilitat: 3.2 km
Cel clar
calitja, boirina
Temporalment
l' 29 a les 10 UTC al 29 a les 14 UTC
Visibilitat: 0.8 km
Núvols disperses a una alçada de 500 ft
boira
A partir de les 29 a les 1430 UTC
Vent kt del Nord
Visibilitat: 6.4 km
Cel clar
calitja
A partir de les 29 a les 1700 UTC
Vent 10 kt del Nord/Nord-Est
Visibilitat: 9.7 km
Cel clar
calitja,

TAF: MMMT 290449Z 2906/3006 00000KT 2SM HZ BR SKC TEMPO 2910/2914 1/2SM FG SCT005 FM291430 00000KT 4SM HZ SKC FM291700 02010KT 6SM HZ SKC

Observacions i pronòstics meteorològics de més de 4000 aeroports (METAR i TAF).

Les estacions disponibles són els punts grocs i vermells al mapa.

Posi el ratolí al punt desitjat per veure el nom de l'estació.

Feu clic per veure les observacions i els pronòstics meteorològics.

Per canviar el mapa: feu clic els botons verds amb una creu de color negre per apropar; al botó verd amb un guió per allunyar la imatge; o en les fletxes verdes per a mapes adjacents.


METAR-TAF: